createdAt,value
2023-05-09T00:00:48.685Z,19.38
2023-05-09T00:03:15.550Z,29.02
2023-05-09T00:05:43.143Z,22.42
2023-05-09T00:08:11.465Z,31.02
2023-05-09T00:10:40.577Z,23.73
2023-05-09T00:13:07.353Z,26.58
2023-05-09T00:15:34.363Z,24.98
2023-05-09T00:18:01.017Z,20.85
2023-05-09T00:20:27.580Z,25.05
2023-05-09T00:22:54.188Z,24.90
2023-05-09T00:25:20.815Z,25.05
2023-05-09T00:27:47.555Z,24.70
2023-05-09T00:30:15.343Z,22.45
2023-05-09T00:32:42.510Z,25.55
2023-05-09T00:35:09.924Z,24.15
2023-05-09T00:37:36.770Z,23.42
2023-05-09T00:40:05.253Z,30.08
2023-05-09T00:42:35.903Z,29.13
2023-05-09T00:47:32.460Z,23.35
2023-05-09T00:49:59.679Z,33.13
2023-05-09T00:52:26.955Z,30.35
2023-05-09T00:54:55.720Z,31.52
2023-05-09T00:57:24.582Z,31.75
2023-05-09T00:59:53.092Z,29.50
2023-05-09T01:02:22.783Z,31.02
2023-05-09T01:04:49.913Z,28.85
2023-05-09T01:07:29.350Z,30.45
2023-05-09T01:10:05.350Z,29.20
2023-05-09T01:12:46.266Z,30.58
2023-05-09T01:15:33.470Z,30.15
2023-05-09T01:18:11.617Z,37.10
2023-05-09T01:20:42.573Z,33.58
2023-05-09T01:23:12.303Z,31.88
2023-05-09T01:26:16.153Z,35.50
2023-05-09T01:29:10.859Z,29.88
2023-05-09T01:31:42.232Z,35.10
2023-05-09T01:34:11.696Z,31.85
2023-05-09T01:36:40.482Z,31.95
2023-05-09T01:39:11.898Z,32.72
2023-05-09T01:41:39.208Z,31.20
2023-05-09T01:44:13.962Z,25.00
2023-05-09T01:46:41.329Z,28.33
2023-05-09T01:49:08.904Z,29.13
2023-05-09T01:51:38.078Z,28.13
2023-05-09T01:54:07.393Z,30.02
2023-05-09T01:56:36.658Z,24.88
2023-05-09T01:59:04.233Z,28.35
2023-05-09T02:01:31.458Z,32.10
2023-05-09T02:03:59.097Z,25.42
2023-05-09T02:06:26.325Z,29.77
2023-05-09T02:08:53.066Z,31.30
2023-05-09T02:11:20.938Z,29.05
2023-05-09T02:13:47.441Z,30.42
2023-05-09T02:16:14.274Z,30.88
2023-05-09T02:18:40.859Z,30.45
2023-05-09T02:21:07.495Z,29.90
2023-05-09T02:23:36.301Z,31.50
2023-05-09T02:26:03.515Z,31.42
2023-05-09T02:28:30.810Z,32.25
2023-05-09T02:31:00.673Z,30.65
2023-05-09T02:33:28.161Z,30.27
2023-05-09T02:35:56.130Z,30.48
2023-05-09T02:38:23.432Z,28.75
2023-05-09T02:40:52.722Z,31.38
2023-05-09T02:43:19.349Z,30.40
2023-05-09T02:45:45.906Z,31.08
2023-05-09T02:48:12.382Z,32.97
2023-05-09T02:50:38.984Z,28.67
2023-05-09T02:53:05.831Z,27.92
2023-05-09T02:55:32.423Z,31.30
2023-05-09T02:58:11.889Z,30.83
2023-05-09T03:00:39.834Z,29.00
2023-05-09T03:03:06.852Z,30.92
2023-05-09T03:05:33.368Z,30.83
2023-05-09T03:07:59.905Z,27.38
2023-05-09T03:10:27.541Z,28.25
2023-05-09T03:12:55.422Z,25.70
2023-05-09T03:15:24.913Z,27.88
2023-05-09T03:17:51.435Z,33.00
2023-05-09T03:20:19.430Z,28.70
2023-05-09T03:22:46.747Z,26.05
2023-05-09T03:25:17.247Z,26.63
2023-05-09T03:27:43.929Z,26.30
2023-05-09T03:30:11.065Z,25.23
2023-05-09T03:32:37.607Z,28.65
2023-05-09T03:35:04.378Z,26.73
2023-05-09T03:37:32.700Z,27.15
2023-05-09T03:39:59.710Z,30.15
2023-05-09T03:42:26.257Z,32.47
2023-05-09T03:44:53.245Z,31.05
2023-05-09T03:47:20.042Z,32.47
2023-05-09T03:49:46.551Z,31.20
2023-05-09T03:52:13.550Z,34.83
2023-05-09T03:54:40.090Z,29.45
2023-05-09T03:57:06.712Z,27.75
2023-05-09T03:59:33.275Z,31.55
2023-05-09T04:02:00.339Z,28.48
2023-05-09T04:04:26.989Z,32.42
2023-05-09T04:06:53.721Z,31.58
2023-05-09T04:09:21.645Z,30.83
2023-05-09T04:11:48.234Z,27.88
2023-05-09T04:14:14.733Z,29.35
2023-05-09T04:16:42.325Z,24.45
2023-05-09T04:19:08.955Z,27.77
2023-05-09T04:21:35.466Z,26.83
2023-05-09T04:24:02.202Z,25.00
2023-05-09T04:26:28.981Z,27.45
2023-05-09T04:28:55.913Z,31.45
2023-05-09T04:31:22.931Z,32.92
2023-05-09T04:33:49.931Z,32.03
2023-05-09T04:36:16.429Z,27.98
2023-05-09T04:38:43.343Z,31.67
2023-05-09T04:41:10.161Z,29.50
2023-05-09T04:43:36.677Z,28.20
2023-05-09T04:46:06.742Z,30.85
2023-05-09T04:48:33.305Z,26.20
2023-05-09T04:51:05.002Z,25.80
2023-05-09T04:53:31.852Z,28.73
2023-05-09T04:56:00.063Z,27.40
2023-05-09T04:58:31.379Z,23.90
2023-05-09T05:00:58.254Z,26.48
2023-05-09T05:03:25.157Z,23.23
2023-05-09T05:05:51.816Z,27.98
2023-05-09T05:08:18.788Z,27.77
2023-05-09T05:10:45.774Z,31.92
2023-05-09T05:13:12.686Z,29.70
2023-05-09T05:15:39.237Z,25.70
2023-05-09T05:18:05.881Z,31.95
2023-05-09T05:20:32.735Z,32.35
2023-05-09T05:22:59.843Z,32.22
2023-05-09T05:25:27.355Z,33.28
2023-05-09T05:27:53.961Z,35.60
2023-05-09T05:30:20.629Z,31.42
2023-05-09T05:32:47.350Z,28.00
2023-05-09T05:35:14.217Z,27.50
2023-05-09T05:37:41.608Z,30.40
2023-05-09T05:40:08.938Z,27.75
2023-05-09T05:42:35.522Z,34.22
2023-05-09T05:45:02.573Z,31.50
2023-05-09T05:47:29.249Z,34.03
2023-05-09T05:49:56.353Z,38.42
2023-05-09T05:52:23.086Z,33.40
2023-05-09T05:54:49.912Z,36.70
2023-05-09T05:57:16.366Z,36.90
2023-05-09T05:59:43.091Z,41.47
2023-05-09T06:02:09.814Z,33.85
2023-05-09T06:04:36.816Z,33.25
2023-05-09T06:07:03.732Z,36.20
2023-05-09T06:09:30.420Z,30.75
2023-05-09T06:11:57.244Z,34.95
2023-05-09T06:14:23.758Z,35.70
2023-05-09T06:16:53.247Z,35.25
2023-05-09T06:19:20.296Z,33.95
2023-05-09T06:21:46.801Z,34.75
2023-05-09T06:24:23.411Z,32.72
2023-05-09T06:26:55.142Z,30.67
2023-05-09T06:29:21.907Z,28.17
2023-05-09T06:31:48.557Z,32.88
2023-05-09T06:34:15.460Z,29.90
2023-05-09T06:36:42.135Z,32.30
2023-05-09T06:39:09.870Z,32.47
2023-05-09T06:41:36.678Z,30.83
2023-05-09T06:44:03.363Z,31.98
2023-05-09T06:46:30.059Z,31.70
2023-05-09T06:48:56.679Z,32.75
2023-05-09T06:51:23.244Z,31.50
2023-05-09T06:53:50.613Z,26.45
2023-05-09T06:56:18.386Z,27.88
2023-05-09T06:58:47.988Z,29.60
2023-05-09T07:01:14.587Z,28.38
2023-05-09T07:03:41.154Z,30.98
2023-05-09T07:06:10.488Z,30.08
2023-05-09T07:08:40.059Z,30.70
2023-05-09T07:11:06.936Z,33.40
2023-05-09T07:13:33.583Z,29.23
2023-05-09T07:16:01.285Z,32.80
2023-05-09T07:18:28.185Z,32.13
2023-05-09T07:20:54.960Z,30.70
2023-05-09T07:23:22.247Z,35.90
2023-05-09T07:25:48.825Z,29.63
2023-05-09T07:28:15.372Z,29.85
2023-05-09T07:30:44.090Z,32.40
2023-05-09T07:33:11.467Z,29.75
2023-05-09T07:35:38.211Z,27.20
2023-05-09T07:38:05.082Z,25.83
2023-05-09T07:40:31.686Z,28.33
2023-05-09T07:42:58.647Z,29.95
2023-05-09T07:45:25.354Z,27.88
2023-05-09T07:47:51.929Z,28.45
2023-05-09T07:50:18.604Z,29.60
2023-05-09T07:52:45.904Z,28.05
2023-05-09T07:55:13.037Z,25.40
2023-05-09T07:57:42.836Z,28.52
2023-05-09T08:00:11.496Z,24.25
2023-05-09T08:02:38.509Z,26.38
2023-05-09T08:05:05.916Z,27.08
2023-05-09T08:07:32.494Z,25.60
2023-05-09T08:09:59.062Z,26.42
2023-05-09T08:12:25.883Z,24.27
2023-05-09T08:14:52.469Z,28.67
2023-05-09T08:17:18.995Z,23.60
2023-05-09T08:19:46.205Z,25.70
2023-05-09T08:22:20.242Z,27.77
2023-05-09T08:24:47.877Z,23.02
2023-05-09T08:27:16.032Z,23.90
2023-05-09T08:29:44.544Z,22.90
2023-05-09T08:32:11.078Z,23.30
2023-05-09T08:34:37.945Z,23.08
2023-05-09T08:37:05.561Z,27.40
2023-05-09T08:39:32.986Z,26.42
2023-05-09T08:42:01.210Z,21.67
2023-05-09T08:44:30.418Z,20.98
2023-05-09T08:47:05.831Z,21.65
2023-05-09T08:49:33.727Z,22.00
2023-05-09T08:52:00.375Z,21.73
2023-05-09T08:54:28.058Z,23.85
2023-05-09T08:56:55.499Z,19.60
2023-05-09T08:59:22.868Z,16.98
2023-05-09T09:01:50.397Z,22.50
2023-05-09T09:04:18.441Z,19.52
2023-05-09T09:06:47.781Z,18.95
2023-05-09T09:09:16.816Z,19.52
2023-05-09T09:11:44.736Z,18.08
2023-05-09T09:14:14.666Z,19.35
2023-05-09T09:16:43.710Z,18.25
2023-05-09T09:19:13.500Z,16.15
2023-05-09T09:21:45.060Z,19.33
2023-05-09T09:24:15.353Z,18.08
2023-05-09T09:26:47.490Z,22.83
2023-05-09T09:29:15.712Z,17.67
2023-05-09T09:31:46.829Z,15.85
2023-05-09T09:34:21.074Z,13.75
2023-05-09T09:36:47.818Z,15.77
2023-05-09T09:39:15.027Z,15.15
2023-05-09T09:41:41.773Z,15.27
2023-05-09T09:44:16.386Z,14.25
2023-05-09T09:46:54.275Z,13.70
2023-05-09T09:49:27.187Z,13.63
2023-05-09T09:52:01.688Z,11.55
2023-05-09T09:54:32.115Z,10.10
2023-05-09T09:56:58.748Z,8.48
2023-05-09T09:59:27.120Z,9.50
2023-05-09T10:02:07.867Z,8.80
2023-05-09T10:04:37.041Z,7.60
2023-05-09T10:07:08.790Z,7.97
2023-05-09T10:09:35.766Z,6.22
2023-05-09T10:12:04.461Z,6.55
2023-05-09T10:14:35.003Z,7.40
2023-05-09T10:17:05.428Z,7.15
2023-05-09T10:19:33.774Z,8.65
2023-05-09T10:22:08.424Z,8.52
2023-05-09T10:24:51.704Z,8.18
2023-05-09T10:27:23.141Z,7.25
2023-05-09T10:29:54.756Z,6.97
2023-05-09T10:32:34.263Z,7.45
2023-05-09T10:35:06.694Z,12.73
2023-05-09T10:37:33.868Z,9.30
2023-05-09T10:40:03.278Z,11.70
2023-05-09T10:42:30.402Z,11.32
2023-05-09T10:44:57.528Z,13.80
2023-05-09T10:47:26.650Z,15.15
2023-05-09T10:49:55.582Z,15.05
2023-05-09T10:52:24.073Z,13.30
2023-05-09T10:55:03.161Z,10.15
2023-05-09T10:57:31.546Z,9.20
2023-05-09T10:59:59.360Z,12.73
2023-05-09T11:02:26.197Z,12.85
2023-05-09T11:05:16.255Z,9.88
2023-05-09T11:07:43.426Z,15.45
2023-05-09T11:10:17.728Z,11.75
2023-05-09T11:12:57.571Z,12.35
2023-05-09T11:18:05.407Z,12.30
2023-05-09T11:20:34.785Z,10.75
2023-05-09T11:23:05.080Z,10.93
2023-05-09T11:28:01.118Z,11.35
2023-05-09T11:30:42.828Z,10.40
2023-05-09T11:33:23.339Z,10.18
2023-05-09T11:36:19.138Z,11.05
2023-05-09T11:38:47.468Z,9.98
2023-05-09T11:41:14.789Z,13.18
2023-05-09T11:43:43.561Z,8.82
2023-05-09T11:46:14.427Z,7.57
2023-05-09T11:48:41.383Z,12.85
2023-05-09T11:51:08.328Z,9.73
2023-05-09T11:53:35.324Z,9.73
2023-05-09T11:56:03.863Z,8.43
2023-05-09T11:58:31.053Z,10.93
2023-05-09T12:00:58.317Z,8.18
2023-05-09T12:03:25.114Z,11.60
2023-05-09T12:05:54.553Z,8.55
2023-05-09T12:08:22.112Z,9.45
2023-05-09T12:10:48.743Z,8.10
2023-05-09T12:13:18.476Z,10.13
2023-05-09T12:15:46.010Z,9.27
2023-05-09T12:18:13.433Z,10.45
2023-05-09T12:20:45.947Z,7.38
2023-05-09T12:23:16.163Z,7.10
2023-05-09T12:25:52.933Z,8.38
2023-05-09T12:28:27.735Z,7.75
2023-05-09T12:30:56.029Z,8.13
2023-05-09T12:33:23.616Z,3.75
2023-05-09T12:36:12.800Z,5.13
2023-05-09T12:38:40.031Z,5.25
2023-05-09T12:41:22.327Z,4.10
2023-05-09T12:44:01.543Z,4.75
2023-05-09T12:46:28.544Z,6.00
2023-05-09T12:48:59.156Z,4.78
2023-05-09T12:51:27.488Z,4.90
2023-05-09T12:53:54.066Z,4.47
2023-05-09T12:56:21.478Z,4.47
2023-05-09T12:58:53.453Z,5.65
2023-05-09T13:01:22.863Z,5.70
2023-05-09T13:04:04.073Z,4.50
2023-05-09T13:06:31.226Z,4.22
2023-05-09T13:09:03.111Z,5.18
2023-05-09T13:11:35.084Z,4.88
2023-05-09T13:14:06.076Z,4.18
2023-05-09T13:16:35.140Z,5.55
2023-05-09T13:19:02.359Z,4.15
2023-05-09T13:21:29.367Z,3.50
2023-05-09T13:23:55.862Z,4.10
2023-05-09T13:26:23.987Z,3.50
2023-05-09T13:28:50.527Z,4.57
2023-05-09T13:31:19.148Z,5.22
2023-05-09T13:33:46.013Z,4.95
2023-05-09T13:36:12.671Z,3.25
2023-05-09T13:38:39.621Z,4.22
2023-05-09T13:41:10.152Z,3.40
2023-05-09T13:43:37.437Z,4.38
2023-05-09T13:46:04.127Z,4.28
2023-05-09T13:48:33.795Z,4.30
2023-05-09T13:51:00.613Z,3.88
2023-05-09T13:53:27.126Z,4.13
2023-05-09T13:55:53.901Z,3.63
2023-05-09T13:58:20.865Z,4.30
2023-05-09T14:00:47.553Z,3.60
2023-05-09T14:03:14.494Z,4.47
2023-05-09T14:05:42.199Z,3.83
2023-05-09T14:08:09.791Z,3.55
2023-05-09T14:10:36.689Z,4.15
2023-05-09T14:13:03.335Z,4.25
2023-05-09T14:15:33.111Z,3.60
2023-05-09T14:17:59.697Z,4.00
2023-05-09T14:20:26.429Z,3.83
2023-05-09T14:22:55.908Z,3.97
2023-05-09T14:25:23.944Z,3.63
2023-05-09T14:27:51.616Z,2.78
2023-05-09T14:30:18.120Z,7.18
2023-05-09T14:32:44.984Z,3.65
2023-05-09T14:35:11.838Z,2.60
2023-05-09T14:37:38.616Z,2.42
2023-05-09T14:40:07.030Z,4.32
2023-05-09T14:42:33.541Z,7.60
2023-05-09T14:45:00.947Z,8.93
2023-05-09T14:47:27.607Z,4.35
2023-05-09T14:49:54.267Z,6.85
2023-05-09T14:52:21.955Z,4.53
2023-05-09T14:54:50.270Z,5.53
2023-05-09T14:57:16.882Z,5.00
2023-05-09T14:59:43.978Z,5.00
2023-05-09T15:02:11.649Z,5.63
2023-05-09T15:04:38.550Z,3.95
2023-05-09T15:07:05.035Z,6.35
2023-05-09T15:09:31.962Z,4.85
2023-05-09T15:11:58.763Z,7.43
2023-05-09T15:14:25.283Z,4.65
2023-05-09T15:16:52.734Z,3.55
2023-05-09T15:19:19.754Z,5.15
2023-05-09T15:21:46.678Z,4.47
2023-05-09T15:24:15.913Z,7.25
2023-05-09T15:26:43.492Z,6.82
2023-05-09T15:29:10.117Z,4.95
2023-05-09T15:31:37.726Z,6.78
2023-05-09T15:34:04.555Z,3.63
2023-05-09T15:36:32.747Z,3.58
2023-05-09T15:38:59.699Z,8.07
2023-05-09T15:41:26.466Z,4.75
2023-05-09T15:43:53.025Z,5.97
2023-05-09T15:46:20.121Z,5.35
2023-05-09T15:48:55.389Z,3.08
2023-05-09T15:51:24.515Z,3.92
2023-05-09T15:53:51.427Z,2.30
2023-05-09T15:56:19.157Z,2.42
2023-05-09T15:58:45.996Z,2.55
2023-05-09T16:01:15.462Z,1.77
2023-05-09T16:03:43.846Z,2.35
2023-05-09T16:06:10.987Z,2.28
2023-05-09T16:08:37.789Z,3.22
2023-05-09T16:11:04.964Z,4.35
2023-05-09T16:13:35.782Z,5.60
2023-05-09T16:16:02.870Z,4.65
2023-05-09T16:18:29.548Z,2.28
2023-05-09T16:20:56.561Z,3.92
2023-05-09T16:23:23.857Z,7.35
2023-05-09T16:25:50.799Z,2.08
2023-05-09T16:28:17.810Z,3.97
2023-05-09T16:30:44.494Z,3.08
2023-05-09T16:33:11.496Z,3.67
2023-05-09T16:35:38.623Z,3.25
2023-05-09T16:38:05.732Z,4.10
2023-05-09T16:40:32.526Z,5.38
2023-05-09T16:42:59.225Z,5.18
2023-05-09T16:45:25.957Z,3.78
2023-05-09T16:47:52.649Z,6.15
2023-05-09T16:50:19.283Z,5.97
2023-05-09T16:52:46.164Z,10.73
2023-05-09T16:55:12.873Z,6.10
2023-05-09T16:57:40.383Z,6.10
2023-05-09T17:00:08.516Z,6.38
2023-05-09T17:02:41.439Z,5.63
2023-05-09T17:05:08.362Z,4.32
2023-05-09T17:07:35.106Z,8.25
2023-05-09T17:10:01.753Z,5.40
2023-05-09T17:12:28.591Z,3.78
2023-05-09T17:14:55.169Z,8.02
2023-05-09T17:17:21.722Z,7.43
2023-05-09T17:19:48.278Z,7.45
2023-05-09T17:22:14.911Z,6.63
2023-05-09T17:24:41.668Z,9.02
2023-05-09T17:27:08.339Z,4.55
2023-05-09T17:29:35.315Z,3.58
2023-05-09T17:32:03.424Z,4.40
2023-05-09T17:34:31.088Z,3.70
2023-05-09T17:36:59.457Z,6.10
2023-05-09T17:39:25.974Z,5.65
2023-05-09T17:41:52.902Z,5.22
2023-05-09T17:44:19.485Z,5.43
2023-05-09T17:46:49.335Z,5.20
2023-05-09T17:49:16.208Z,5.47
2023-05-09T17:51:43.345Z,3.42
2023-05-09T17:54:10.842Z,5.53
2023-05-09T17:56:37.389Z,4.38
2023-05-09T17:59:03.945Z,5.88
2023-05-09T18:01:31.292Z,4.70
2023-05-09T18:03:59.066Z,12.52
2023-05-09T18:06:25.876Z,9.43
2023-05-09T18:08:59.884Z,6.05
2023-05-09T18:11:26.410Z,5.95
2023-05-09T18:13:53.102Z,8.63
2023-05-09T18:16:19.617Z,5.18
2023-05-09T18:18:46.629Z,5.38
2023-05-09T18:21:13.254Z,18.83
2023-05-09T18:23:52.837Z,10.45
2023-05-09T18:26:20.965Z,5.25
2023-05-09T18:28:54.592Z,4.53
2023-05-09T18:31:27.237Z,6.50
2023-05-09T18:33:55.872Z,4.75
2023-05-09T18:36:23.501Z,5.28
2023-05-09T18:38:51.676Z,7.60
2023-05-09T18:41:23.065Z,5.80
2023-05-09T18:43:51.610Z,8.27
2023-05-09T18:46:21.831Z,8.55
2023-05-09T18:48:52.904Z,6.22
2023-05-09T18:51:20.153Z,17.75
2023-05-09T18:53:47.205Z,5.75
2023-05-09T18:56:14.325Z,6.40
2023-05-09T18:58:40.940Z,5.35
2023-05-09T19:01:09.770Z,5.63
2023-05-09T19:03:36.429Z,4.70
2023-05-09T19:06:03.431Z,4.40
2023-05-09T19:08:34.309Z,5.80
2023-05-09T19:11:01.176Z,6.55
2023-05-09T19:13:28.168Z,5.60
2023-05-09T19:15:54.892Z,5.70
2023-05-09T19:18:21.391Z,3.47
2023-05-09T19:20:48.120Z,6.03
2023-05-09T19:23:15.340Z,4.88
2023-05-09T19:25:41.918Z,7.75
2023-05-09T19:28:08.735Z,7.68
2023-05-09T19:30:36.033Z,7.47
2023-05-09T19:33:02.827Z,7.57
2023-05-09T19:35:29.780Z,7.05
2023-05-09T19:37:56.550Z,5.32
2023-05-09T19:40:23.398Z,6.50
2023-05-09T19:42:52.959Z,12.57
2023-05-09T19:45:20.066Z,9.38
2023-05-09T19:47:46.580Z,9.45
2023-05-09T19:50:17.428Z,9.43
2023-05-09T19:52:44.352Z,9.98
2023-05-09T19:55:12.634Z,8.48
2023-05-09T19:57:40.293Z,10.63
2023-05-09T20:00:09.055Z,13.15
2023-05-09T20:02:35.611Z,8.15
2023-05-09T20:05:02.646Z,7.55
2023-05-09T20:07:32.097Z,8.52
2023-05-09T20:09:58.671Z,6.70
2023-05-09T20:12:30.251Z,7.50
2023-05-09T20:14:58.590Z,6.85
2023-05-09T20:17:26.566Z,5.72
2023-05-09T20:19:53.592Z,5.38
2023-05-09T20:22:22.386Z,5.00
2023-05-09T20:24:49.012Z,6.72
2023-05-09T20:27:15.405Z,6.00
2023-05-09T20:29:43.220Z,6.88
2023-05-09T20:32:10.997Z,7.18
2023-05-09T20:34:38.144Z,12.75
2023-05-09T20:37:04.775Z,7.97
2023-05-09T20:39:33.340Z,5.53
2023-05-09T20:42:01.679Z,5.20
2023-05-09T20:44:34.011Z,4.15
2023-05-09T20:47:00.669Z,6.00
2023-05-09T20:49:33.820Z,6.38
2023-05-09T20:52:01.225Z,5.82
2023-05-09T20:54:28.290Z,4.15
2023-05-09T20:56:56.919Z,4.90
2023-05-09T20:59:23.505Z,4.95
2023-05-09T21:01:52.644Z,3.70
2023-05-09T21:04:19.465Z,11.18
2023-05-09T21:06:46.001Z,15.45
2023-05-09T21:09:12.543Z,6.07
2023-05-09T21:11:40.646Z,6.93
2023-05-09T21:14:08.971Z,4.80
2023-05-09T21:16:35.734Z,7.05
2023-05-09T21:19:05.384Z,4.55
2023-05-09T21:21:32.856Z,4.68
2023-05-09T21:24:00.153Z,5.70
2023-05-09T21:26:26.985Z,4.80
2023-05-09T21:28:53.540Z,4.05
2023-05-09T21:31:20.169Z,4.68
2023-05-09T21:33:46.629Z,4.65
2023-05-09T21:36:14.116Z,3.65
2023-05-09T21:38:40.950Z,3.67
2023-05-09T21:41:07.717Z,4.60
2023-05-09T21:43:35.560Z,3.33
2023-05-09T21:46:05.433Z,4.32
2023-05-09T21:48:32.224Z,3.38
2023-05-09T21:51:04.490Z,6.07
2023-05-09T21:53:30.994Z,4.90
2023-05-09T21:55:57.558Z,5.75
2023-05-09T21:58:24.232Z,3.72
2023-05-09T22:00:51.379Z,4.30
2023-05-09T22:03:18.024Z,3.63
2023-05-09T22:05:44.636Z,5.78
2023-05-09T22:08:11.273Z,4.28
2023-05-09T22:10:38.004Z,7.32
2023-05-09T22:13:04.997Z,6.75
2023-05-09T22:15:31.519Z,3.53
2023-05-09T22:17:58.168Z,4.88
2023-05-09T22:20:24.998Z,4.07
2023-05-09T22:22:51.720Z,3.45
2023-05-09T22:25:18.379Z,4.30
2023-05-09T22:27:45.213Z,4.82
2023-05-09T22:30:12.563Z,5.93
2023-05-09T22:32:41.417Z,4.60
2023-05-09T22:35:09.132Z,3.47
2023-05-09T22:37:36.738Z,5.50
2023-05-09T22:40:03.851Z,5.28
2023-05-09T22:42:30.672Z,4.20
2023-05-09T22:44:57.718Z,3.15
2023-05-09T22:47:24.672Z,2.50
2023-05-09T22:49:51.194Z,2.65
2023-05-09T22:52:18.031Z,2.70
2023-05-09T22:54:44.910Z,2.30
2023-05-09T22:57:12.411Z,2.70
2023-05-09T22:59:38.950Z,2.20
2023-05-09T23:02:05.383Z,3.03
2023-05-09T23:04:31.924Z,2.78
2023-05-09T23:06:58.515Z,2.17
2023-05-09T23:09:25.270Z,2.13
2023-05-09T23:11:51.771Z,1.88
2023-05-09T23:14:18.787Z,7.85
2023-05-09T23:16:45.451Z,1.83
2023-05-09T23:19:11.857Z,2.13
2023-05-09T23:21:38.653Z,2.50
2023-05-09T23:24:06.051Z,2.72
2023-05-09T23:26:32.849Z,1.65
2023-05-09T23:28:59.661Z,3.15
2023-05-09T23:31:26.517Z,1.60
2023-05-09T23:33:53.348Z,1.75
2023-05-09T23:36:19.803Z,2.67
2023-05-09T23:38:46.266Z,1.77
2023-05-09T23:41:12.993Z,2.95
2023-05-09T23:43:39.625Z,1.85
2023-05-09T23:46:06.513Z,2.10
2023-05-09T23:48:33.343Z,1.50
2023-05-09T23:50:59.955Z,2.28
2023-05-09T23:53:29.366Z,2.70
2023-05-09T23:55:56.099Z,3.92
2023-05-09T23:58:22.891Z,2.95
